MO57 weather

Henderson Mounds E B G Airport
East Prairie, Missouri, United States

Public forecast

Using degrees Fahrenheit for public forecast. Weather courtesy of forecast.io.

Closest aviation weather report (METAR) to Henderson Mounds E B G Airport

Closest report is Sikeston Memorial Municipal Airport, 12.4 nm (23.0 km) NNW. Retrieved 2020/05/26 17:35 UTC (0 seconds ago):

KSIK 261735Z AUTO 15013G18KT 112V172 10SM CLR 28/19 A2996 RMK AO2

Closest aviation forecast (TAF) to Henderson Mounds E B G Airport

Closest forecast is Cape Girardeau Regional Airport, 31.5 nm (58.4 km) N. Retrieved 2020/05/26 12:24 UTC (5 hours ago):

TAF KCGI 261121Z 2612/2712 15009KT P6SM FEW150 FM261400 16012G19KT P6SM SCT030 BKN120 FM270000 14011KT P6SM VCSH FEW040 BKN120 FM270600 14008KT 6SM -SHRA BR OVC025 FM271100 13007KT 4SM -SHRA BR OVC012